createdAt,value
2018-03-24T00:00:03.470Z,88.53
2018-03-24T00:01:03.473Z,88.53
2018-03-24T00:02:03.436Z,88.53
2018-03-24T00:03:03.421Z,88.34
2018-03-24T00:04:03.395Z,88.62
2018-03-24T00:05:03.400Z,88.90
2018-03-24T00:06:03.371Z,88.90
2018-03-24T00:07:03.351Z,88.53
2018-03-24T00:08:03.357Z,88.43
2018-03-24T00:09:03.315Z,88.15
2018-03-24T00:10:03.315Z,88.62
2018-03-24T00:11:03.278Z,88.48
2018-03-24T00:12:03.257Z,88.15
2018-03-24T00:13:03.245Z,88.05
2018-03-24T00:14:03.224Z,87.86
2018-03-24T00:15:03.217Z,88.34
2018-03-24T00:16:03.188Z,88.20
2018-03-24T00:17:03.169Z,87.95
2018-03-24T00:18:03.153Z,88.62
2018-03-24T00:19:03.150Z,88.53
2018-03-24T00:20:03.116Z,88.53
2018-03-24T00:21:03.097Z,88.62
2018-03-24T00:22:03.083Z,88.10
2018-03-24T00:23:03.074Z,88.15
2018-03-24T00:24:03.044Z,88.62
2018-03-24T00:25:03.037Z,88.24
2018-03-24T00:26:03.014Z,88.34
2018-03-24T00:27:02.995Z,88.90
2018-03-24T00:28:02.977Z,88.86
2018-03-24T00:29:02.983Z,88.95
2018-03-24T00:30:02.941Z,88.57
2018-03-24T00:31:02.925Z,88.48
2018-03-24T00:32:02.905Z,88.62
2018-03-24T00:33:02.890Z,88.43
2018-03-24T00:34:02.874Z,88.24
2018-03-24T00:35:02.869Z,88.34
2018-03-24T00:36:02.833Z,87.95
2018-03-24T00:37:02.824Z,88.05
2018-03-24T00:38:02.800Z,87.86
2018-03-24T00:39:02.781Z,88.05
2018-03-24T00:40:02.783Z,87.95
2018-03-24T00:41:02.760Z,87.95
2018-03-24T00:42:02.725Z,87.86
2018-03-24T00:43:02.714Z,88.43
2018-03-24T00:44:02.691Z,88.43
2018-03-24T00:45:02.675Z,88.53
2018-03-24T00:46:02.665Z,88.62
2018-03-24T00:47:02.655Z,88.53
2018-03-24T00:48:02.625Z,88.34
2018-03-24T00:49:02.612Z,88.53
2018-03-24T00:50:02.587Z,87.67
2018-03-24T00:51:02.572Z,87.95
2018-03-24T00:52:02.569Z,88.05
2018-03-24T00:53:02.531Z,87.86
2018-03-24T00:54:02.520Z,88.43
2018-03-24T00:55:02.500Z,88.34
2018-03-24T00:56:02.492Z,87.67
2018-03-24T00:57:02.482Z,88.05
2018-03-24T00:58:02.469Z,87.95
2018-03-24T00:59:02.428Z,87.86
2018-03-24T01:00:02.410Z,87.95
2018-03-24T01:01:02.393Z,87.95
2018-03-24T01:02:02.382Z,87.95
2018-03-24T01:03:02.357Z,87.95
2018-03-24T01:04:02.365Z,88.05
2018-03-24T01:05:02.323Z,88.05
2018-03-24T01:06:02.307Z,87.95
2018-03-24T01:07:02.291Z,87.48
2018-03-24T01:08:02.270Z,87.95
2018-03-24T01:09:02.255Z,87.67
2018-03-24T01:10:02.251Z,87.91
2018-03-24T01:11:02.219Z,87.67
2018-03-24T01:12:02.201Z,88.53
2018-03-24T01:13:02.182Z,87.62
2018-03-24T01:14:02.182Z,88.01
2018-03-24T01:15:02.160Z,87.67
2018-03-24T01:16:02.125Z,87.86
2018-03-24T01:17:02.121Z,88.48
2018-03-24T01:18:02.095Z,88.39
2018-03-24T01:19:02.074Z,88.20
2018-03-24T01:20:02.078Z,88.39
2018-03-24T01:21:02.041Z,87.62
2018-03-24T01:22:02.026Z,87.67
2018-03-24T01:23:02.011Z,88.29
2018-03-24T01:24:01.991Z,88.39
2018-03-24T01:25:01.975Z,88.39
2018-03-24T01:26:01.975Z,88.01
2018-03-24T01:27:01.936Z,88.20
2018-03-24T01:28:01.920Z,87.72
2018-03-24T01:29:01.905Z,87.95
2018-03-24T01:30:01.887Z,88.05
2018-03-24T01:31:01.882Z,88.01
2018-03-24T01:32:01.867Z,87.82
2018-03-24T01:33:01.833Z,88.39
2018-03-24T01:34:01.821Z,88.20
2018-03-24T01:35:01.796Z,87.91
2018-03-24T01:36:01.786Z,88.39
2018-03-24T01:37:01.776Z,88.20
2018-03-24T01:38:01.751Z,88.29
2018-03-24T01:39:01.728Z,87.82
2018-03-24T01:40:02.210Z,88.39
2018-03-24T01:41:01.692Z,88.39
2018-03-24T01:42:01.683Z,88.39
2018-03-24T01:43:01.657Z,88.57
2018-03-24T01:44:01.636Z,88.29
2018-03-24T01:45:01.618Z,88.01
2018-03-24T01:46:01.620Z,88.39
2018-03-24T01:47:01.624Z,87.82
2018-03-24T01:48:01.577Z,88.20
2018-03-24T01:49:01.566Z,88.10
2018-03-24T01:50:01.537Z,88.29
2018-03-24T01:51:01.536Z,88.01
2018-03-24T01:52:01.518Z,88.20
2018-03-24T01:53:01.488Z,87.82
2018-03-24T01:54:01.464Z,88.20
2018-03-24T01:55:01.454Z,88.01
2018-03-24T01:56:01.451Z,88.29
2018-03-24T01:57:01.420Z,88.10
2018-03-24T01:58:01.396Z,88.29
2018-03-24T01:59:01.379Z,88.29
2018-03-24T02:00:01.376Z,88.29
2018-03-24T02:01:01.361Z,87.91
2018-03-24T02:02:01.329Z,88.20
2018-03-24T02:03:01.312Z,88.67
2018-03-24T02:04:01.292Z,88.20
2018-03-24T02:05:01.274Z,88.20
2018-03-24T02:06:01.260Z,88.10
2018-03-24T02:07:01.255Z,88.20
2018-03-24T02:08:01.242Z,88.67
2018-03-24T02:09:01.224Z,88.86
2018-03-24T02:10:01.185Z,88.48
2018-03-24T02:11:01.169Z,88.67
2018-03-24T02:12:01.156Z,88.48
2018-03-24T02:13:01.140Z,88.39
2018-03-24T02:14:01.134Z,88.39
2018-03-24T02:15:01.105Z,88.76
2018-03-24T02:16:01.090Z,88.67
2018-03-24T02:17:01.065Z,89.14
2018-03-24T02:18:01.047Z,88.76
2018-03-24T02:19:01.053Z,88.86
2018-03-24T02:20:01.008Z,89.05
2018-03-24T02:21:00.999Z,88.95
2018-03-24T02:22:00.982Z,88.86
2018-03-24T02:23:00.966Z,88.76
2018-03-24T02:24:00.959Z,88.95
2018-03-24T02:25:00.924Z,88.57
2018-03-24T02:26:00.921Z,89.05
2018-03-24T02:27:00.898Z,88.67
2018-03-24T02:28:00.877Z,89.14
2018-03-24T02:29:00.874Z,88.95
2018-03-24T02:30:00.858Z,88.67
2018-03-24T02:31:00.833Z,88.76
2018-03-24T02:32:00.801Z,88.57
2018-03-24T02:33:00.789Z,88.57
2018-03-24T02:34:00.775Z,88.95
2018-03-24T02:35:00.767Z,88.29
2018-03-24T02:36:00.756Z,88.10
2018-03-24T02:37:00.716Z,88.20
2018-03-24T02:38:00.700Z,88.20
2018-03-24T02:39:00.691Z,88.48
2018-03-24T02:40:00.691Z,88.86
2018-03-24T02:41:00.650Z,88.48
2018-03-24T02:42:00.631Z,88.48
2018-03-24T02:43:00.619Z,89.05
2018-03-24T02:44:00.595Z,89.33
2018-03-24T02:45:00.581Z,88.57
2018-03-24T02:46:00.586Z,88.95
2018-03-24T02:47:00.542Z,89.14
2018-03-24T02:48:00.536Z,89.14
2018-03-24T02:49:00.524Z,88.76
2018-03-24T02:50:00.505Z,89.05
2018-03-24T02:51:00.493Z,89.05
2018-03-24T02:52:00.454Z,88.39
2018-03-24T02:53:00.458Z,88.39
2018-03-24T02:54:00.422Z,88.39
2018-03-24T02:55:00.399Z,89.05
2018-03-24T02:56:00.389Z,88.86
2018-03-24T02:57:00.401Z,89.05
2018-03-24T02:58:00.375Z,88.29
2018-03-24T02:59:00.336Z,88.76
2018-03-24T03:00:00.316Z,88.57
2018-03-24T03:01:00.302Z,88.57
2018-03-24T03:02:00.279Z,88.67
2018-03-24T03:03:00.265Z,88.39
2018-03-24T03:04:00.259Z,88.29
2018-03-24T03:05:00.230Z,89.05
2018-03-24T03:06:00.214Z,88.86
2018-03-24T03:07:00.196Z,89.14
2018-03-24T03:08:00.174Z,89.43
2018-03-24T03:09:00.181Z,88.95
2018-03-24T03:10:00.148Z,89.14
2018-03-24T03:11:00.124Z,88.86
2018-03-24T03:12:00.187Z,89.14
2018-03-24T03:13:00.093Z,89.05
2018-03-24T03:14:00.087Z,88.95
2018-03-24T03:15:00.054Z,88.95
2018-03-24T03:16:00.035Z,88.95
2018-03-24T03:17:00.017Z,89.62
2018-03-24T03:18:00.006Z,89.43
2018-03-24T03:18:59.978Z,89.72
2018-03-24T03:20:21.036Z,89.43
2018-03-24T03:20:59.948Z,89.62
2018-03-24T03:21:59.927Z,89.81
2018-03-24T03:22:59.915Z,89.81
2018-03-24T03:23:59.898Z,89.81
2018-03-24T03:24:59.895Z,89.53
2018-03-24T03:25:59.856Z,89.81
2018-03-24T03:26:59.839Z,89.62
2018-03-24T03:27:59.846Z,89.90
2018-03-24T03:28:59.799Z,90.09
2018-03-24T03:29:59.803Z,90.28
2018-03-24T03:30:59.783Z,90.38
2018-03-24T03:31:59.749Z,90.38
2018-03-24T03:32:59.735Z,90.19
2018-03-24T03:33:59.708Z,90.52
2018-03-24T03:34:59.728Z,90.81
2018-03-24T03:35:59.688Z,90.81
2018-03-24T03:36:59.657Z,90.43
2018-03-24T03:37:59.638Z,91.00
2018-03-24T03:38:59.620Z,91.19
2018-03-24T03:39:59.605Z,91.28
2018-03-24T03:40:59.610Z,90.90
2018-03-24T03:41:59.576Z,91.38
2018-03-24T03:42:59.551Z,91.09
2018-03-24T03:43:59.531Z,91.28
2018-03-24T03:44:59.516Z,91.47
2018-03-24T03:45:59.524Z,91.56
2018-03-24T03:46:59.479Z,91.75
2018-03-24T03:47:59.464Z,92.23
2018-03-24T03:48:59.450Z,91.85
2018-03-24T03:49:59.426Z,91.94
2018-03-24T03:50:59.422Z,92.14
2018-03-24T03:51:59.385Z,92.42
2018-03-24T03:52:59.385Z,92.52
2018-03-24T03:53:59.355Z,92.23
2018-03-24T03:54:59.328Z,92.71
2018-03-24T03:55:59.310Z,92.23
2018-03-24T03:56:59.299Z,92.33
2018-03-24T03:57:59.274Z,92.80
2018-03-24T03:58:59.274Z,93.18
2018-03-24T03:59:59.251Z,92.99
2018-03-24T04:00:59.225Z,92.99
2018-03-24T04:01:59.235Z,92.99
2018-03-24T04:02:59.205Z,92.80
2018-03-24T04:03:59.178Z,93.27
2018-03-24T04:04:59.148Z,92.99
2018-03-24T04:05:59.130Z,92.80
2018-03-24T04:06:59.110Z,93.37
2018-03-24T04:07:59.097Z,93.65
2018-03-24T04:08:59.090Z,93.56
2018-03-24T04:09:59.070Z,93.56
2018-03-24T04:10:59.034Z,93.41
2018-03-24T04:11:59.022Z,93.61
2018-03-24T04:12:59.004Z,93.80
2018-03-24T04:13:58.986Z,93.99
2018-03-24T04:14:58.981Z,94.37
2018-03-24T04:15:58.953Z,94.37
2018-03-24T04:16:58.928Z,94.18
2018-03-24T04:17:58.925Z,94.27
2018-03-24T04:18:58.883Z,94.37
2018-03-24T04:19:58.883Z,94.27
2018-03-24T04:20:58.851Z,94.46
2018-03-24T04:21:58.833Z,94.74
2018-03-24T04:22:58.817Z,94.84
2018-03-24T04:23:58.813Z,94.84
2018-03-24T04:24:58.800Z,95.03
2018-03-24T04:25:58.759Z,95.03
2018-03-24T04:26:58.741Z,95.12
2018-03-24T04:27:58.720Z,94.84
2018-03-24T04:28:58.705Z,94.93
2018-03-24T04:29:58.704Z,95.31
2018-03-24T04:30:58.673Z,94.84
2018-03-24T04:31:58.656Z,95.03
2018-03-24T04:32:58.625Z,94.74
2018-03-24T04:33:58.613Z,94.93
2018-03-24T04:34:58.598Z,95.03
2018-03-24T04:35:58.594Z,95.12
2018-03-24T04:36:58.556Z,94.93
2018-03-24T04:37:58.557Z,95.12
2018-03-24T04:38:58.527Z,95.22
2018-03-24T04:39:58.501Z,95.12
2018-03-24T04:40:58.500Z,95.03
2018-03-24T04:41:58.465Z,95.12
2018-03-24T04:42:58.443Z,95.22
2018-03-24T04:43:58.423Z,95.12
2018-03-24T04:44:58.406Z,95.31
2018-03-24T04:45:58.390Z,95.03
2018-03-24T04:46:58.395Z,95.03
2018-03-24T04:47:58.348Z,94.84
2018-03-24T04:48:58.353Z,95.12
2018-03-24T04:49:58.323Z,95.31
2018-03-24T04:50:58.320Z,95.31
2018-03-24T04:51:58.277Z,95.41
2018-03-24T04:52:58.259Z,95.12
2018-03-24T04:53:58.247Z,95.03
2018-03-24T04:54:58.223Z,95.12
2018-03-24T04:55:58.215Z,94.93
2018-03-24T04:56:58.203Z,94.84
2018-03-24T04:57:58.171Z,95.31
2018-03-24T04:58:58.158Z,95.31
2018-03-24T04:59:58.129Z,95.22
2018-03-24T05:00:58.121Z,95.12
2018-03-24T05:01:58.123Z,95.41
2018-03-24T05:02:58.090Z,95.69
2018-03-24T05:03:58.113Z,95.41
2018-03-24T05:04:58.040Z,95.41
2018-03-24T05:05:58.025Z,95.50
2018-03-24T05:06:58.004Z,95.31
2018-03-24T05:07:57.981Z,95.98
2018-03-24T05:08:57.977Z,95.69
2018-03-24T05:09:57.951Z,96.08
2018-03-24T05:10:57.930Z,95.69
2018-03-24T05:11:57.934Z,95.60
2018-03-24T05:12:57.894Z,96.08
2018-03-24T05:13:57.891Z,96.17
2018-03-24T05:14:57.876Z,95.88
2018-03-24T05:15:57.838Z,95.69
2018-03-24T05:16:57.819Z,95.60
2018-03-24T05:17:57.800Z,96.26
2018-03-24T05:18:57.782Z,95.88
2018-03-24T05:19:57.780Z,95.69
2018-03-24T05:20:57.745Z,95.79
2018-03-24T05:21:57.721Z,96.08
2018-03-24T05:22:57.711Z,95.98
2018-03-24T05:23:57.688Z,95.79
2018-03-24T05:24:57.686Z,96.17
2018-03-24T05:25:57.647Z,95.41
2018-03-24T05:26:57.627Z,95.41
2018-03-24T05:27:57.614Z,95.41
2018-03-24T05:28:57.595Z,95.50
2018-03-24T05:29:57.569Z,95.41
2018-03-24T05:30:57.566Z,95.22
2018-03-24T05:31:57.544Z,95.79
2018-03-24T05:32:57.523Z,96.08
2018-03-24T05:33:57.502Z,95.79
2018-03-24T05:34:57.485Z,95.31
2018-03-24T05:35:57.480Z,95.50
2018-03-24T05:36:57.441Z,95.31
2018-03-24T05:37:57.433Z,95.60
2018-03-24T05:38:57.410Z,95.60
2018-03-24T05:39:57.389Z,95.60
2018-03-24T05:40:57.390Z,95.31
2018-03-24T05:41:57.367Z,95.69
2018-03-24T05:42:57.335Z,95.69
2018-03-24T05:43:57.316Z,95.79
2018-03-24T05:44:57.300Z,95.88
2018-03-24T05:45:57.287Z,95.79
2018-03-24T05:46:57.264Z,95.79
2018-03-24T05:47:57.265Z,95.79
2018-03-24T05:48:57.218Z,95.69
2018-03-24T05:49:57.213Z,95.88
2018-03-24T05:50:57.202Z,95.60
2018-03-24T05:51:57.186Z,96.08
2018-03-24T05:52:57.157Z,96.17
2018-03-24T05:53:57.148Z,96.73
2018-03-24T05:54:57.127Z,96.55
2018-03-24T05:55:57.095Z,96.36
2018-03-24T05:56:57.075Z,96.45
2018-03-24T05:57:57.057Z,96.83
2018-03-24T05:58:57.647Z,96.83
2018-03-24T05:59:57.035Z,96.59
2018-03-24T06:00:57.010Z,96.59
2018-03-24T06:01:56.990Z,96.50
2018-03-24T06:02:56.964Z,96.31
2018-03-24T06:03:56.980Z,96.31
2018-03-24T06:04:56.938Z,96.97
2018-03-24T06:05:56.913Z,96.88
2018-03-24T06:06:56.882Z,96.88
2018-03-24T06:07:56.868Z,96.59
2018-03-24T06:08:56.852Z,96.59
2018-03-24T06:09:56.842Z,97.26
2018-03-24T06:10:56.810Z,97.16
2018-03-24T06:11:56.794Z,97.64
2018-03-24T06:12:56.790Z,97.54
2018-03-24T06:13:56.758Z,97.73
2018-03-24T06:14:56.754Z,97.45
2018-03-24T06:15:56.717Z,97.83
2018-03-24T06:16:56.701Z,97.83
2018-03-24T06:17:56.693Z,98.02
2018-03-24T06:18:56.662Z,97.64
2018-03-24T06:19:56.661Z,98.02
2018-03-24T06:20:56.625Z,97.92
2018-03-24T06:21:56.609Z,97.92
2018-03-24T06:22:56.588Z,97.92
2018-03-24T06:23:56.569Z,98.11
2018-03-24T06:24:56.566Z,97.45
2018-03-24T06:25:56.531Z,97.54
2018-03-24T06:26:56.508Z,97.54
2018-03-24T06:27:56.490Z,97.16
2018-03-24T06:28:56.470Z,96.59
2018-03-24T06:29:56.453Z,97.12
2018-03-24T06:30:56.453Z,96.97
2018-03-24T06:31:56.429Z,97.12
2018-03-24T06:32:56.405Z,96.92
2018-03-24T06:33:56.396Z,96.36
2018-03-24T06:34:56.360Z,96.55
2018-03-24T06:35:56.338Z,96.17
2018-03-24T06:36:56.322Z,96.17
2018-03-24T06:37:56.300Z,96.36
2018-03-24T06:38:56.303Z,96.73
2018-03-24T06:39:56.272Z,96.45
2018-03-24T06:40:56.249Z,96.26
2018-03-24T06:41:56.227Z,96.73
2018-03-24T06:42:56.210Z,96.26
2018-03-24T06:43:56.191Z,95.98
2018-03-24T06:44:56.260Z,95.88
2018-03-24T06:45:56.154Z,96.64
2018-03-24T06:46:56.138Z,95.88
2018-03-24T06:47:56.116Z,96.45
2018-03-24T06:48:56.094Z,95.98
2018-03-24T06:49:56.106Z,95.88
2018-03-24T06:50:56.060Z,95.55
2018-03-24T06:51:56.045Z,94.84
2018-03-24T06:52:56.027Z,95.31
2018-03-24T06:53:56.007Z,95.03
2018-03-24T06:54:55.997Z,94.70
2018-03-24T06:55:55.990Z,94.89
2018-03-24T06:56:55.955Z,94.51
2018-03-24T06:57:55.939Z,94.32
2018-03-24T06:58:55.919Z,95.17
2018-03-24T06:59:55.897Z,94.89
2018-03-24T07:00:55.881Z,94.23
2018-03-24T07:01:55.938Z,94.32
2018-03-24T07:02:55.844Z,93.84
2018-03-24T07:03:55.860Z,93.94
2018-03-24T07:04:55.805Z,93.56
2018-03-24T07:05:55.803Z,93.75
2018-03-24T07:06:55.793Z,93.65
2018-03-24T07:07:55.751Z,93.65
2018-03-24T07:08:55.732Z,93.65
2018-03-24T07:09:55.725Z,92.61
2018-03-24T07:10:55.699Z,93.08
2018-03-24T07:11:55.679Z,93.37
2018-03-24T07:12:55.684Z,93.37
2018-03-24T07:13:55.652Z,93.18
2018-03-24T07:14:55.627Z,92.80
2018-03-24T07:15:55.622Z,93.18
2018-03-24T07:16:55.596Z,92.61
2018-03-24T07:17:55.584Z,92.61
2018-03-24T07:18:55.578Z,92.80
2018-03-24T07:19:55.544Z,92.75
2018-03-24T07:20:55.527Z,92.94
2018-03-24T07:21:55.510Z,92.75
2018-03-24T07:22:55.509Z,92.56
2018-03-24T07:23:55.481Z,92.85
2018-03-24T07:24:55.469Z,92.37
2018-03-24T07:25:55.442Z,92.47
2018-03-24T07:26:55.425Z,92.66
2018-03-24T07:27:55.420Z,92.56
2018-03-24T07:28:55.434Z,92.56
2018-03-24T07:29:55.379Z,91.71
2018-03-24T07:30:55.371Z,91.80
2018-03-24T07:31:55.337Z,92.09
2018-03-24T07:32:55.329Z,91.99
2018-03-24T07:33:55.326Z,91.24
2018-03-24T07:34:55.275Z,90.76
2018-03-24T07:35:55.282Z,91.04
2018-03-24T07:36:55.257Z,90.66
2018-03-24T07:37:55.265Z,91.24
2018-03-24T07:38:55.205Z,91.42
2018-03-24T07:39:55.192Z,91.14
2018-03-24T07:40:55.175Z,91.14
2018-03-24T07:41:55.173Z,91.89
2018-03-24T07:42:55.134Z,91.89
2018-03-24T07:43:55.120Z,91.52
2018-03-24T07:44:55.110Z,91.80
2018-03-24T07:45:55.089Z,91.04
2018-03-24T07:46:55.077Z,91.33
2018-03-24T07:47:55.072Z,90.85
2018-03-24T07:48:55.033Z,90.95
2018-03-24T07:49:55.038Z,90.95
2018-03-24T07:50:55.006Z,90.66
2018-03-24T07:51:55.003Z,91.42
2018-03-24T07:52:54.981Z,91.42
2018-03-24T07:53:54.964Z,91.52
2018-03-24T07:54:54.949Z,91.89
2018-03-24T07:55:54.911Z,91.80
2018-03-24T07:56:54.904Z,91.52
2018-03-24T07:57:54.908Z,91.47
2018-03-24T07:58:54.867Z,90.99
2018-03-24T07:59:54.845Z,91.19
2018-03-24T08:00:54.830Z,91.09
2018-03-24T08:01:54.812Z,90.99
2018-03-24T08:02:54.798Z,90.99
2018-03-24T08:03:54.798Z,91.09
2018-03-24T08:04:54.762Z,90.61
2018-03-24T08:05:54.745Z,90.23
2018-03-24T08:06:54.733Z,89.76
2018-03-24T08:07:54.710Z,90.61
2018-03-24T08:08:54.692Z,90.61
2018-03-24T08:09:54.692Z,90.52
2018-03-24T08:10:54.657Z,90.23
2018-03-24T08:11:54.644Z,90.05
2018-03-24T08:12:54.622Z,89.67
2018-03-24T08:13:54.608Z,90.14
2018-03-24T08:14:54.609Z,90.09
2018-03-24T08:15:54.573Z,89.57
2018-03-24T08:16:54.572Z,89.57
2018-03-24T08:17:54.539Z,89.71
2018-03-24T08:18:54.515Z,90.05
2018-03-24T08:19:54.526Z,89.71
2018-03-24T08:20:54.500Z,90.00
2018-03-24T08:21:54.476Z,89.23
2018-03-24T08:22:54.446Z,89.04
2018-03-24T08:23:58.574Z,88.28
2018-03-24T08:24:54.416Z,88.47
2018-03-24T08:26:15.413Z,88.38
2018-03-24T08:26:54.396Z,87.76
2018-03-24T08:27:54.364Z,88.04
2018-03-24T08:28:54.350Z,87.57
2018-03-24T08:29:54.336Z,87.47
2018-03-24T08:30:54.324Z,87.28
2018-03-24T08:31:54.318Z,86.90
2018-03-24T08:32:54.296Z,87.19
2018-03-24T08:33:54.265Z,87.13
2018-03-24T08:34:54.247Z,87.13
2018-03-24T08:35:54.222Z,86.57
2018-03-24T08:36:54.220Z,85.90
2018-03-24T08:37:54.206Z,85.99
2018-03-24T08:38:54.180Z,85.33
2018-03-24T08:39:54.155Z,84.76
2018-03-24T08:40:54.147Z,85.14
2018-03-24T08:41:54.127Z,84.99
2018-03-24T08:42:54.134Z,85.47
2018-03-24T08:43:54.094Z,84.99
2018-03-24T08:44:54.073Z,84.23
2018-03-24T08:45:54.068Z,83.65
2018-03-24T08:46:54.045Z,82.61
2018-03-24T08:47:54.046Z,82.32
2018-03-24T08:48:54.011Z,82.42
2018-03-24T08:49:54.006Z,82.70
2018-03-24T08:50:53.977Z,82.61
2018-03-24T08:51:53.973Z,81.85
2018-03-24T08:52:53.961Z,81.95
2018-03-24T08:53:53.929Z,81.95
2018-03-24T08:54:53.927Z,81.76
2018-03-24T08:55:53.898Z,81.03
2018-03-24T08:56:53.877Z,80.60
2018-03-24T08:57:53.863Z,79.55
2018-03-24T08:58:53.854Z,77.49
2018-03-24T08:59:53.857Z,76.39
2018-03-24T09:00:53.837Z,75.24
2018-03-24T09:01:53.801Z,73.75
2018-03-24T09:02:53.782Z,72.64
2018-03-24T09:03:53.766Z,71.31
2018-03-24T09:04:53.766Z,69.97
2018-03-24T09:05:53.737Z,68.96
2018-03-24T09:06:53.712Z,68.67
2018-03-24T09:07:53.717Z,68.67
2018-03-24T09:08:53.689Z,68.92
2018-03-24T09:09:53.674Z,69.21
2018-03-24T09:10:53.649Z,69.49
2018-03-24T09:11:53.639Z,69.17
2018-03-24T09:12:53.646Z,69.49
2018-03-24T09:13:53.608Z,69.62
2018-03-24T09:14:53.596Z,70.89
2018-03-24T09:15:53.574Z,70.36
2018-03-24T09:16:53.562Z,69.43
2018-03-24T09:17:53.554Z,67.08
2018-03-24T09:18:53.552Z,65.20
2018-03-24T09:19:53.520Z,65.58
2018-03-24T09:20:53.517Z,64.62
2018-03-24T09:21:53.503Z,63.67
2018-03-24T09:22:53.493Z,64.15
2018-03-24T09:23:53.483Z,62.90
2018-03-24T09:24:53.450Z,61.76
2018-03-24T09:25:53.433Z,60.99
2018-03-24T09:26:53.417Z,61.79
2018-03-24T09:27:53.465Z,62.68
2018-03-24T09:28:53.392Z,62.71
2018-03-24T09:29:53.401Z,63.32
2018-03-24T09:30:53.376Z,62.87
2018-03-24T09:31:53.360Z,61.16
2018-03-24T09:32:53.343Z,61.06
2018-03-24T09:33:53.324Z,60.87
2018-03-24T09:34:53.313Z,61.06
2018-03-24T09:35:53.322Z,60.01
2018-03-24T09:36:53.296Z,58.93
2018-03-24T09:37:53.283Z,59.78
2018-03-24T09:38:53.287Z,60.49
2018-03-24T09:39:53.255Z,60.01
2018-03-24T09:40:53.250Z,59.01
2018-03-24T09:41:53.233Z,58.09
2018-03-24T09:42:53.227Z,57.13
2018-03-24T09:43:53.219Z,56.62
2018-03-24T09:44:53.228Z,56.91
2018-03-24T09:45:53.193Z,55.96
2018-03-24T09:46:53.183Z,55.38
2018-03-24T09:47:53.176Z,55.57
2018-03-24T09:48:53.164Z,55.86
2018-03-24T09:49:53.165Z,55.54
2018-03-24T09:50:53.138Z,56.21
2018-03-24T09:51:53.140Z,56.05
2018-03-24T09:52:53.158Z,55.38
2018-03-24T09:53:53.118Z,53.40
2018-03-24T09:54:53.126Z,52.28
2018-03-24T09:55:53.104Z,52.85
2018-03-24T09:56:53.091Z,54.04
2018-03-24T09:57:53.083Z,55.10
2018-03-24T09:58:53.066Z,55.22
2018-03-24T09:59:53.062Z,54.33
2018-03-24T10:00:53.069Z,55.12
2018-03-24T10:01:53.044Z,55.42
2018-03-24T10:02:53.038Z,56.95
2018-03-24T10:03:53.027Z,58.23
2018-03-24T10:04:53.021Z,59.63
2018-03-24T10:05:53.008Z,58.26
2018-03-24T10:06:53.017Z,59.76
2018-03-24T10:07:53.004Z,61.16
2018-03-24T10:08:52.984Z,61.38
2018-03-24T10:09:52.973Z,60.64
2018-03-24T10:10:52.970Z,59.15
2018-03-24T10:11:52.981Z,57.75
2018-03-24T10:12:52.971Z,55.22
2018-03-24T10:13:52.941Z,54.77
2018-03-24T10:14:52.926Z,54.22
2018-03-24T10:15:52.923Z,53.45
2018-03-24T10:16:52.932Z,52.04
2018-03-24T10:17:52.909Z,50.70
2018-03-24T10:18:52.891Z,50.46
2018-03-24T10:19:52.904Z,51.97
2018-03-24T10:20:52.878Z,52.06
2018-03-24T10:21:52.878Z,52.42
2018-03-24T10:22:52.878Z,53.25
2018-03-24T10:23:52.858Z,53.34
2018-03-24T10:24:52.848Z,53.56
2018-03-24T10:25:52.840Z,53.78
2018-03-24T10:26:52.846Z,53.04
2018-03-24T10:27:52.838Z,52.83
2018-03-24T10:28:52.846Z,53.11
2018-03-24T10:29:52.811Z,53.11
2018-03-24T10:30:52.820Z,53.11
2018-03-24T10:31:52.798Z,52.95
2018-03-24T10:32:52.802Z,52.47
2018-03-24T10:33:52.782Z,52.18
2018-03-24T10:34:52.794Z,52.28
2018-03-24T10:35:52.768Z,51.87
2018-03-24T10:36:52.759Z,51.56
2018-03-24T10:37:52.754Z,52.06
2018-03-24T10:38:52.745Z,51.87
2018-03-24T10:39:52.759Z,52.10
2018-03-24T10:40:52.748Z,53.16
2018-03-24T10:41:52.724Z,53.96
2018-03-24T10:42:52.724Z,55.87
2018-03-24T10:43:52.725Z,56.32
2018-03-24T10:44:52.699Z,56.99
2018-03-24T10:45:52.707Z,56.82
2018-03-24T10:46:52.691Z,55.80
2018-03-24T10:47:52.687Z,55.71
2018-03-24T10:48:52.668Z,55.26
2018-03-24T10:49:52.672Z,53.92
2018-03-24T10:50:52.644Z,53.89
2018-03-24T10:51:52.640Z,53.73
2018-03-24T10:52:52.632Z,53.06
2018-03-24T10:53:52.625Z,53.08
2018-03-24T10:54:52.634Z,52.58
2018-03-24T10:55:52.601Z,53.18
2018-03-24T10:56:52.591Z,52.61
2018-03-24T10:57:52.589Z,52.15
2018-03-24T10:58:52.578Z,52.03
2018-03-24T10:59:52.568Z,51.01
2018-03-24T11:00:52.610Z,49.21
2018-03-24T11:01:52.554Z,48.28
2018-03-24T11:02:52.544Z,47.30
2018-03-24T11:03:52.530Z,46.72
2018-03-24T11:04:52.546Z,47.30
2018-03-24T11:05:52.534Z,48.39
2018-03-24T11:06:52.510Z,49.29
2018-03-24T11:07:52.500Z,50.26
2018-03-24T11:08:52.496Z,49.48
2018-03-24T11:09:52.489Z,49.09
2018-03-24T11:10:52.499Z,49.38
2018-03-24T11:11:52.474Z,49.57
2018-03-24T11:12:52.462Z,48.25
2018-03-24T11:13:52.451Z,47.71
2018-03-24T11:14:52.445Z,47.22
2018-03-24T11:15:52.459Z,46.82
2018-03-24T11:16:52.433Z,46.82
2018-03-24T11:17:52.420Z,46.53
2018-03-24T11:18:52.410Z,46.05
2018-03-24T11:19:52.473Z,46.15
2018-03-24T11:20:52.419Z,46.75
2018-03-24T11:21:52.416Z,46.17
2018-03-24T11:22:52.388Z,45.98
2018-03-24T11:23:52.383Z,46.12
2018-03-24T11:24:52.372Z,48.04
2018-03-24T11:25:52.365Z,48.54
2018-03-24T11:26:52.373Z,46.44
2018-03-24T11:27:52.355Z,45.29
2018-03-24T11:28:52.352Z,45.09
2018-03-24T11:29:52.340Z,45.09
2018-03-24T11:30:52.366Z,44.33
2018-03-24T11:31:52.337Z,44.13
2018-03-24T11:32:52.344Z,44.43
2018-03-24T11:33:52.302Z,44.71
2018-03-24T11:34:52.295Z,46.25
2018-03-24T11:35:52.295Z,46.25
2018-03-24T11:36:52.290Z,46.53
2018-03-24T11:37:52.282Z,47.01
2018-03-24T11:38:52.310Z,47.49
2018-03-24T11:39:52.264Z,47.11
2018-03-24T11:40:52.254Z,46.39
2018-03-24T11:41:52.340Z,46.67
2018-03-24T11:42:52.266Z,46.10
2018-03-24T11:43:52.234Z,46.58
2018-03-24T11:44:52.228Z,47.20
2018-03-24T11:45:52.221Z,49.21
2018-03-24T11:46:52.213Z,47.80
2018-03-24T11:47:52.201Z,48.35
2018-03-24T11:48:52.209Z,49.02
2018-03-24T11:49:52.191Z,49.04
2018-03-24T11:50:52.180Z,49.14
2018-03-24T11:51:52.174Z,48.38
2018-03-24T11:52:52.170Z,48.39
2018-03-24T11:53:52.158Z,47.16
2018-03-24T11:54:52.158Z,46.48
2018-03-24T11:55:52.136Z,47.97
2018-03-24T11:56:52.130Z,49.04
2018-03-24T11:57:52.136Z,49.04
2018-03-24T11:58:52.116Z,49.49
2018-03-24T11:59:52.126Z,50.07
2018-03-24T12:00:52.095Z,50.76
2018-03-24T12:01:52.137Z,49.88
2018-03-24T12:02:52.072Z,49.90
2018-03-24T12:03:52.070Z,50.62
2018-03-24T12:04:52.076Z,50.81
2018-03-24T12:05:52.070Z,51.03
2018-03-24T12:06:52.043Z,50.29
2018-03-24T12:07:52.031Z,50.00
2018-03-24T12:08:52.026Z,49.90
2018-03-24T12:09:52.018Z,50.19
2018-03-24T12:10:52.010Z,50.38
2018-03-24T12:11:52.012Z,50.31
2018-03-24T12:12:51.986Z,50.12
2018-03-24T12:13:51.980Z,48.95
2018-03-24T12:14:51.970Z,48.66
2018-03-24T12:15:51.979Z,49.07
2018-03-24T12:16:51.980Z,48.49
2018-03-24T12:17:51.946Z,47.66
2018-03-24T12:18:51.932Z,48.42
2018-03-24T12:19:51.927Z,47.08
2018-03-24T12:20:51.921Z,47.68
2018-03-24T12:21:51.931Z,47.78
2018-03-24T12:22:51.899Z,48.30
2018-03-24T12:23:51.890Z,48.09
2018-03-24T12:24:51.880Z,48.18
2018-03-24T12:25:51.871Z,47.82
2018-03-24T12:26:51.865Z,47.53
2018-03-24T12:27:51.872Z,47.25
2018-03-24T12:28:51.865Z,46.77
2018-03-24T12:29:51.841Z,46.12
2018-03-24T12:30:51.831Z,45.84
2018-03-24T12:31:51.819Z,45.84
2018-03-24T12:32:51.900Z,46.58
2018-03-24T12:33:51.807Z,47.44
2018-03-24T12:34:51.844Z,47.34
2018-03-24T12:35:51.803Z,47.25
2018-03-24T12:36:51.784Z,47.63
2018-03-24T12:37:51.770Z,48.28
2018-03-24T12:38:52.241Z,48.39
2018-03-24T12:39:51.755Z,47.82
2018-03-24T12:40:51.765Z,49.23
2018-03-24T12:41:51.741Z,48.85
2018-03-24T12:42:51.740Z,49.33
2018-03-24T12:43:51.718Z,49.23
2018-03-24T12:44:51.756Z,49.35
2018-03-24T12:45:51.720Z,48.23
2018-03-24T12:46:51.693Z,47.94
2018-03-24T12:47:51.683Z,48.42
2018-03-24T12:48:51.681Z,48.23
2018-03-24T12:49:51.671Z,49.48
2018-03-24T12:50:51.669Z,47.85
2018-03-24T12:51:51.650Z,48.13